Time;durP1;ratioP1;P1;durP2;ratioP2;P2;SDS_P1;SDS_P2;PMS_P1;PMS_P2;Temp;Humidity;BMP_temperature;BMP_pressure;BME280_temperature;BME280_humidity;BME280_pressure;Samples;Min_cycle;Max_cycle;Signal;HPM_P1;HPM_P2
2022/12/11 00:00:38;;;;;;;24.63;14.55;;;;;;;-1.09;88.98;100335.66;5025934;28;20043;-62
2022/12/11 00:03:05;;;;;;;23.58;13.95;;;;;;;-1.07;88.99;100331.34;5028206;28;20071;-60
2022/12/11 00:05:40;;;;;;;23.65;14.73;;;;;;;-1.06;89.41;100328.72;5028737;28;20057;-62
2022/12/11 00:08:07;;;;;;;23.95;13.95;;;;;;;-1.11;88.04;100324.50;5030782;28;20041;-58
2022/12/11 00:19:12;;;;;;;22.63;13.57;;;;;;;-1.06;88.91;100328.72;5030349;28;20068;-61
2022/12/11 00:21:39;;;;;;;22.52;13.43;;;;;;;-1.04;89.12;100332.16;5029711;28;20057;-61
2022/12/11 00:24:10;;;;;;;20.63;12.98;;;;;;;-1.02;89.56;100332.97;5025487;28;20168;-61
2022/12/11 00:26:41;;;;;;;22.73;13.60;;;;;;;-0.98;88.96;100332.94;5012531;28;20052;-61
2022/12/11 00:29:13;;;;;;;20.85;14.00;;;;;;;-0.96;88.80;100326.84;5030755;28;20114;-61
2022/12/11 00:31:41;;;;;;;23.83;14.60;;;;;;;-0.94;89.18;100332.00;5029071;28;20136;-61
2022/12/11 00:34:08;;;;;;;20.75;13.75;;;;;;;-0.94;89.04;100325.09;5029284;28;20518;-62
2022/12/11 00:36:35;;;;;;;24.30;13.43;;;;;;;-0.92;89.58;100327.66;5029114;28;20058;-60
2022/12/11 00:39:03;;;;;;;24.23;14.30;;;;;;;-0.92;88.98;100325.06;5029008;28;20076;-60
2022/12/11 00:41:31;;;;;;;22.48;14.43;;;;;;;-0.94;88.76;100327.69;5029580;28;20056;-60
2022/12/11 00:43:58;;;;;;;24.70;14.75;;;;;;;-0.94;88.40;100326.84;5031864;28;20068;-61
2022/12/11 00:46:25;;;;;;;22.92;13.85;;;;;;;-0.97;88.50;100321.69;5028271;28;20145;-60
2022/12/11 00:48:52;;;;;;;22.77;14.95;;;;;;;-0.91;89.02;100324.19;5009043;28;20075;-61
2022/12/11 00:51:19;;;;;;;23.52;14.75;;;;;;;-0.87;89.25;100323.25;5029165;28;20072;-61
2022/12/11 00:53:47;;;;;;;22.00;14.20;;;;;;;-0.83;89.22;100324.91;5029598;28;20049;-61
2022/12/11 00:56:17;;;;;;;20.75;14.48;;;;;;;-0.82;89.02;100324.03;5020604;28;20508;-62
2022/12/11 00:58:45;;;;;;;21.75;14.57;;;;;;;-0.88;88.99;100324.97;5029764;28;20053;-61
2022/12/11 01:01:15;;;;;;;23.83;13.57;;;;;;;-0.82;89.26;100318.84;5027681;28;20147;-62
2022/12/11 01:03:42;;;;;;;23.55;14.57;;;;;;;-0.79;89.42;100322.25;5026801;28;20401;-62
2022/12/11 01:06:15;;;;;;;23.83;13.30;;;;;;;-0.77;88.99;100319.63;5028739;28;20715;-59
2022/12/11 01:08:43;;;;;;;23.60;14.35;;;;;;;-0.79;88.77;100322.25;5025382;28;20119;-62
2022/12/11 01:11:13;;;;;;;20.45;12.52;;;;;;;-0.83;88.68;100318.00;5027419;28;21872;-62
2022/12/11 01:13:40;;;;;;;23.40;14.95;;;;;;;-0.78;89.17;100321.34;5028331;28;20054;-62
2022/12/11 01:16:11;;;;;;;23.27;15.48;;;;;;;-0.72;89.27;100327.28;5028271;28;20049;-61
2022/12/11 01:18:39;;;;;;;22.98;13.90;;;;;;;-0.68;89.25;100326.34;5026130;28;20128;-62
2022/12/11 01:21:09;;;;;;;23.70;14.23;;;;;;;-0.68;88.83;100332.38;5027162;28;20569;-61
2022/12/11 01:23:36;;;;;;;23.33;14.73;;;;;;;-0.72;88.73;100335.94;5026719;28;20061;-61
2022/12/11 01:26:08;;;;;;;22.10;13.93;;;;;;;-0.68;88.92;100339.28;5028849;28;20056;-62
2022/12/11 01:28:35;;;;;;;23.90;13.27;;;;;;;-0.67;88.78;100341.88;5029248;28;20821;-62
2022/12/11 01:31:13;;;;;;;22.20;13.38;;;;;;;-0.63;89.18;100342.63;5028451;28;20045;-60
2022/12/11 01:33:40;;;;;;;23.40;13.20;;;;;;;-0.63;88.61;100338.34;5028825;28;20060;-61
2022/12/11 01:36:17;;;;;;;20.20;13.18;;;;;;;-0.59;88.15;100339.97;5027910;28;20152;-57
2022/12/11 01:38:45;;;;;;;22.58;13.57;;;;;;;-0.59;88.21;100339.97;5029439;28;20528;-60
2022/12/11 01:41:14;;;;;;;21.33;13.63;;;;;;;-0.60;88.25;100329.66;5019613;28;20049;-61
2022/12/11 01:43:56;;;;;;;24.00;14.57;;;;;;;-0.64;87.56;100333.19;5031391;28;20140;-59
2022/12/11 01:46:23;;;;;;;25.98;15.43;;;;;;;-0.73;87.00;100325.59;5028388;28;20555;-60
2022/12/11 01:48:51;;;;;;;24.23;14.85;;;;;;;-0.75;87.54;100330.81;5028964;28;20076;-61
2022/12/11 01:51:19;;;;;;;25.58;14.45;;;;;;;-0.84;86.96;100325.78;5027052;28;20144;-61
2022/12/11 01:53:50;;;;;;;21.33;14.10;;;;;;;-0.88;87.13;100337.06;5010761;28;20572;-62
2022/12/11 01:56:18;;;;;;;22.55;14.55;;;;;;;-0.84;88.49;100336.97;5003919;28;20055;-60
2022/12/11 01:58:48;;;;;;;24.70;15.40;;;;;;;-0.87;87.75;100336.16;5028740;28;20059;-61
2022/12/11 02:01:27;;;;;;;26.17;15.73;;;;;;;-0.86;87.82;100337.88;5004362;28;20057;-61
2022/12/11 02:03:54;;;;;;;23.58;13.35;;;;;;;-0.99;86.64;100344.13;5017429;28;20817;-60
2022/12/11 02:06:35;;;;;;;23.85;14.98;;;;;;;-0.97;87.95;100335.47;5027118;28;20059;-60
2022/12/11 02:09:04;;;;;;;23.40;14.68;;;;;;;-0.93;87.87;100333.69;5027240;28;20049;-61
2022/12/11 02:11:44;;;;;;;24.02;16.17;;;;;;;-0.99;87.59;100339.81;5011602;28;20502;-61
2022/12/11 02:14:26;;;;;;;22.48;14.10;;;;;;;-0.94;87.31;100337.16;5027262;28;20060;-58
2022/12/11 02:17:03;;;;;;;23.55;14.88;;;;;;;-0.99;87.14;100339.81;5015516;28;20117;-60
2022/12/11 02:19:47;;;;;;;26.13;15.05;;;;;;;-0.99;87.90;100341.53;5027539;28;20132;-61
2022/12/11 02:22:40;;;;;;;23.38;16.25;;;;;;;-0.93;87.90;100347.47;5023863;28;20144;-61
2022/12/11 02:25:20;;;;;;;28.35;15.63;;;;;;;-0.94;87.32;100339.75;4996157;28;20046;-60
2022/12/11 02:27:55;;;;;;;26.35;15.60;;;;;;;-0.96;87.38;100337.16;5027991;28;20058;-61
2022/12/11 02:30:22;;;;;;;21.60;13.57;;;;;;;-0.99;87.50;100344.13;5026984;28;20059;-61
2022/12/11 02:32:55;;;;;;;25.48;15.43;;;;;;;-0.90;88.40;100351.72;5028547;28;20053;-62
2022/12/11 02:35:22;;;;;;;23.73;15.07;;;;;;;-0.90;87.97;100338.78;5007539;28;20073;-59
2022/12/11 02:37:55;;;;;;;26.38;15.48;;;;;;;-0.97;87.29;100338.06;5027605;28;20064;-59
2022/12/11 02:40:25;;;;;;;29.55;15.15;;;;;;;-0.95;87.58;100332.84;5026929;28;20115;-61
2022/12/11 02:42:54;;;;;;;26.73;15.45;;;;;;;-0.94;88.09;100332.00;5007667;28;20056;-62
2022/12/11 02:45:23;;;;;;;28.42;16.50;;;;;;;-0.88;88.56;100329.31;5030157;28;20053;-60
2022/12/11 02:47:51;;;;;;;26.95;15.07;;;;;;;-0.92;87.71;100320.75;5014143;28;20144;-61
2022/12/11 02:50:20;;;;;;;30.17;15.88;;;;;;;-0.98;88.33;100323.44;5030674;28;20456;-62
2022/12/11 02:52:49;;;;;;;29.65;16.88;;;;;;;-1.04;88.51;100326.09;5031871;28;20053;-59
2022/12/11 02:55:17;;;;;;;26.58;15.95;;;;;;;-1.00;88.87;100329.50;5017691;28;20409;-61
2022/12/11 02:57:48;;;;;;;29.20;14.73;;;;;;;-0.91;88.85;100322.44;5014151;28;20073;-60
2022/12/11 03:00:15;;;;;;;26.48;15.48;;;;;;;-0.89;88.66;100327.59;5009999;28;20046;-62
2022/12/11 03:02:43;;;;;;;25.35;14.57;;;;;;;-0.90;89.15;100334.50;5028547;28;20109;-59
2022/12/11 03:05:12;;;;;;;26.88;15.65;;;;;;;-0.84;88.86;100318.03;5029637;28;20137;-61
2022/12/11 03:07:41;;;;;;;27.73;14.73;;;;;;;-0.85;88.39;100321.50;5019626;28;20060;-60
2022/12/11 03:10:13;;;;;;;25.80;16.75;;;;;;;-0.95;88.45;100330.28;5030577;28;20065;-60
2022/12/11 03:12:42;;;;;;;25.23;14.70;;;;;;;-0.98;88.47;100328.59;5032256;28;20068;-59
2022/12/11 03:15:16;;;;;;;27.50;15.35;;;;;;;-0.99;88.58;100328.59;5013618;28;20045;-60
2022/12/11 03:17:46;;;;;;;25.27;15.27;;;;;;;-1.02;88.75;100330.38;5014636;28;20431;-59
2022/12/11 03:20:13;;;;;;;28.45;16.45;;;;;;;-1.05;88.75;100333.00;5012940;28;20152;-60
2022/12/11 03:22:53;;;;;;;28.95;14.73;;;;;;;-1.10;88.15;100326.22;5031273;28;20053;-60
2022/12/11 03:25:43;;;;;;;26.38;15.13;;;;;;;-1.13;88.08;100328.84;5023099;28;20045;-59
2022/12/11 03:28:18;;;;;;;27.02;14.50;;;;;;;-1.09;88.84;100330.50;5032396;28;20049;-62
2022/12/11 03:30:48;;;;;;;27.27;16.05;;;;;;;-1.06;89.26;100327.88;5014695;28;20136;-61
2022/12/11 03:33:23;;;;;;;28.58;15.52;;;;;;;-1.05;89.53;100333.00;5015978;28;20136;-61
2022/12/11 03:35:54;;;;;;;26.95;15.60;;;;;;;-0.96;89.22;100339.75;5014475;28;20582;-61
2022/12/11 03:38:36;;;;;;;27.65;16.55;;;;;;;-0.97;88.66;100332.03;5025267;28;20064;-61
2022/12/11 03:41:05;;;;;;;24.02;14.90;;;;;;;-0.98;88.43;100336.34;5031582;28;20060;-61
2022/12/11 03:43:33;;;;;;;27.77;15.85;;;;;;;-1.07;87.71;100332.19;5030467;28;20202;-62
2022/12/11 03:46:00;;;;;;;27.80;15.75;;;;;;;-1.14;88.29;100335.72;5033708;28;20045;-60
2022/12/11 03:48:32;;;;;;;30.55;15.93;;;;;;;-1.07;88.74;100328.75;5014215;28;20090;-61
2022/12/11 03:51:01;;;;;;;26.20;15.75;;;;;;;-1.00;88.90;100321.75;5030318;28;20509;-59
2022/12/11 03:53:28;;;;;;;26.45;15.27;;;;;;;-1.05;88.41;100329.56;5013795;28;20068;-61
2022/12/11 03:55:57;;;;;;;28.05;15.45;;;;;;;-0.94;88.27;100329.41;5029561;28;20441;-61
2022/12/11 03:58:24;;;;;;;25.95;14.82;;;;;;;-1.04;87.79;100328.69;5011770;28;20065;-61
2022/12/11 04:00:51;;;;;;;23.63;14.02;;;;;;;-1.03;88.10;100318.34;5029346;28;20057;-60
2022/12/11 04:03:18;;;;;;;23.95;15.25;;;;;;;-1.04;88.21;100316.66;5028834;28;20064;-61
2022/12/11 04:05:47;;;;;;;25.58;15.73;;;;;;;-1.09;88.07;100321.00;5029809;28;20136;-60
2022/12/11 04:08:16;;;;;;;27.02;14.65;;;;;;;-1.18;87.47;100317.72;5028093;28;20064;-60
2022/12/11 04:10:43;;;;;;;28.25;16.15;;;;;;;-1.21;88.07;100310.06;5029968;28;20516;-59
2022/12/11 04:13:11;;;;;;;24.15;13.95;;;;;;;-1.18;87.83;100316.00;5011633;28;20502;-61
2022/12/11 04:15:38;;;;;;;27.17;16.17;;;;;;;-1.17;88.22;100315.13;5029796;28;20133;-61
2022/12/11 04:26:25;;;;;;;29.95;16.45;;;;;;;-1.50;88.13;100310.47;5029857;28;20053;-61
2022/12/11 04:28:52;;;;;;;26.85;13.88;;;;;;;-1.44;88.36;100310.38;5029799;28;20069;-59
2022/12/11 04:31:20;;;;;;;26.15;16.70;;;;;;;-1.40;89.38;100309.44;5029042;28;20148;-60
2022/12/11 04:33:48;;;;;;;25.58;15.55;;;;;;;-1.35;89.65;100310.22;5029149;28;20049;-61
2022/12/11 04:36:15;;;;;;;25.58;15.18;;;;;;;-1.30;89.50;100306.72;5029710;28;20059;-61
2022/12/11 04:38:42;;;;;;;25.60;15.95;;;;;;;-1.26;88.99;100304.97;5030484;28;20055;-61
2022/12/11 04:41:12;;;;;;;33.08;16.00;;;;;;;-1.32;88.27;100307.63;5029342;28;20045;-62
2022/12/11 04:43:39;;;;;;;31.30;17.15;;;;;;;-1.33;88.48;100304.19;5017855;28;20514;-62
2022/12/11 04:46:09;;;;;;;28.67;16.45;;;;;;;-1.44;88.47;100310.38;5029805;28;20056;-62
2022/12/11 04:48:37;;;;;;;26.33;16.33;;;;;;;-1.44;89.09;100306.09;5029641;28;20054;-62
2022/12/11 04:51:05;;;;;;;26.17;15.95;;;;;;;-1.38;89.08;100300.81;5029103;28;20083;-62
2022/12/11 04:53:32;;;;;;;28.80;16.48;;;;;;;-1.34;89.02;100302.47;5029175;28;20056;-61
2022/12/11 04:55:59;;;;;;;24.52;16.33;;;;;;;-1.32;88.94;100303.28;5029303;28;20109;-62
2022/12/11 04:58:27;;;;;;;25.08;17.55;;;;;;;-1.25;89.38;100304.06;5029313;28;20060;-62
2022/12/11 05:00:54;;;;;;;25.60;16.02;;;;;;;-1.29;88.57;100302.41;5028032;28;20057;-62
2022/12/11 05:03:21;;;;;;;25.80;15.70;;;;;;;-1.41;88.85;100318.94;5027673;28;20076;-61
2022/12/11 05:05:50;;;;;;;25.77;15.77;;;;;;;-1.46;89.19;100313.00;5026754;28;20433;-62
2022/12/11 05:08:18;;;;;;;27.70;16.60;;;;;;;-1.47;89.61;100302.69;5029660;28;20140;-59
2022/12/11 05:10:59;;;;;;;29.60;16.73;;;;;;;-1.35;90.39;100310.22;5027898;28;20081;-62
2022/12/11 05:13:27;;;;;;;31.20;17.50;;;;;;;-1.25;89.77;100313.56;5028157;28;20061;-62
2022/12/11 05:15:55;;;;;;;24.92;15.82;;;;;;;-1.19;89.81;100311.72;5028692;28;20543;-62
2022/12/11 05:18:23;;;;;;;27.20;16.63;;;;;;;-1.16;89.43;100311.69;5028981;28;20129;-63
2022/12/11 05:20:57;;;;;;;31.50;17.73;;;;;;;-1.21;89.51;100305.72;5025430;28;20053;-63
2022/12/11 05:23:24;;;;;;;24.23;16.05;;;;;;;-1.28;89.39;100298.94;5022980;28;20137;-62
2022/12/11 05:25:56;;;;;;;25.85;16.63;;;;;;;-1.35;89.84;100299.91;5029294;28;20058;-62
2022/12/11 05:28:26;;;;;;;28.52;17.30;;;;;;;-1.34;90.10;100301.63;5014358;28;20053;-62
2022/12/11 05:31:20;;;;;;;25.13;15.85;;;;;;;-1.35;90.17;100299.91;5028368;28;20233;-62
2022/12/11 05:33:49;;;;;;;27.42;15.85;;;;;;;-1.44;89.94;100305.22;5024098;28;20058;-60
2022/12/11 05:36:30;;;;;;;26.80;15.65;;;;;;;-1.51;90.25;100299.31;5011128;28;20060;-63
2022/12/11 05:38:58;;;;;;;29.08;16.60;;;;;;;-1.51;90.43;100303.63;5029132;28;20166;-61
2022/12/11 05:41:27;;;;;;;28.08;15.68;;;;;;;-1.50;90.38;100305.31;5028277;28;20053;-62
2022/12/11 05:43:54;;;;;;;26.42;15.05;;;;;;;-1.57;90.09;100301.97;5030486;28;20055;-62
2022/12/11 05:46:23;;;;;;;23.40;15.02;;;;;;;-1.49;90.69;100302.69;5027792;28;20053;-60
2022/12/11 05:48:54;;;;;;;28.15;15.90;;;;;;;-1.38;90.60;100297.38;5028382;28;20057;-62
2022/12/11 05:51:21;;;;;;;26.73;16.00;;;;;;;-1.30;90.67;100298.97;5026939;28;20059;-60
2022/12/11 05:53:50;;;;;;;26.42;15.82;;;;;;;-1.22;90.52;100293.66;5027763;28;20160;-62
2022/12/11 05:56:19;;;;;;;30.23;15.55;;;;;;;-1.24;90.07;100295.44;5028029;28;20045;-61
2022/12/11 05:58:47;;;;;;;25.20;15.90;;;;;;;-1.21;90.22;100290.22;5028189;28;20067;-62
2022/12/11 06:01:17;;;;;;;25.90;16.80;;;;;;;-1.23;90.01;100284.22;5026248;28;20053;-61
2022/12/11 06:03:44;;;;;;;26.75;14.40;;;;;;;-1.24;89.80;100287.69;5025947;28;20136;-62
2022/12/11 06:06:11;;;;;;;24.23;14.77;;;;;;;-1.24;89.90;100287.69;5028163;28;20069;-62
2022/12/11 06:08:38;;;;;;;25.88;13.82;;;;;;;-1.32;89.33;100282.63;5028297;28;20839;-61
2022/12/11 06:11:06;;;;;;;22.52;14.18;;;;;;;-1.26;89.74;100281.72;5027536;28;20067;-61
2022/12/11 06:13:34;;;;;;;25.63;14.40;;;;;;;-1.24;89.24;100285.09;5028121;28;20587;-62
2022/12/11 06:16:03;;;;;;;24.27;14.45;;;;;;;-1.22;89.72;100283.34;5027559;28;20048;-62
2022/12/11 06:18:30;;;;;;;20.23;13.52;;;;;;;-1.17;89.51;100289.31;5023731;28;20090;-61
2022/12/11 06:20:58;;;;;;;23.50;13.40;;;;;;;-1.22;89.05;100287.66;5026520;28;20454;-62
2022/12/11 06:23:25;;;;;;;22.52;13.35;;;;;;;-1.21;88.86;100289.38;5028267;28;20079;-58
2022/12/11 06:25:52;;;;;;;18.75;12.77;;;;;;;-1.28;88.20;100286.88;5027603;28;20049;-63
2022/12/11 06:28:19;;;;;;;22.98;13.70;;;;;;;-1.20;89.04;100291.09;5029033;28;20355;-61
2022/12/11 06:30:46;;;;;;;22.45;14.68;;;;;;;-1.22;89.05;100288.50;5027401;28;20080;-59
2022/12/11 06:33:13;;;;;;;21.17;12.48;;;;;;;-1.38;87.63;100280.16;5028004;28;20060;-60
2022/12/11 06:35:41;;;;;;;23.13;13.68;;;;;;;-1.49;86.93;100284.63;5027079;28;20132;-62
2022/12/11 06:55:47;;;;;;;23.40;14.60;;;;;;;-1.51;87.43;100293.28;5026272;28;20116;-61
2022/12/11 06:58:15;;;;;;;22.73;14.10;;;;;;;-1.48;87.49;100298.41;5023932;28;20057;-62
2022/12/11 07:00:42;;;;;;;19.85;13.85;;;;;;;-1.58;86.31;100298.53;5027084;28;20482;-60
2022/12/11 07:03:10;;;;;;;19.85;13.02;;;;;;;-1.59;87.33;100294.25;5026181;28;20056;-61
2022/12/11 07:05:37;;;;;;;20.13;13.25;;;;;;;-1.58;86.73;100305.41;5025828;28;20153;-61
2022/12/11 07:08:06;;;;;;;20.95;13.23;;;;;;;-1.52;87.42;100300.19;5026703;28;20048;-61
2022/12/11 07:10:33;;;;;;;18.25;12.52;;;;;;;-1.65;85.66;100302.09;5027228;28;20052;-61
2022/12/11 07:13:00;;;;;;;19.65;13.65;;;;;;;-1.71;85.91;100289.28;5027881;28;20092;-61
2022/12/11 07:15:27;;;;;;;19.60;12.93;;;;;;;-1.70;86.46;100293.56;5025574;28;20063;-61
2022/12/11 07:17:54;;;;;;;21.85;13.43;;;;;;;-1.64;86.00;100290.88;5026203;28;20052;-58
2022/12/11 07:20:21;;;;;;;19.20;12.45;;;;;;;-1.73;84.94;100300.47;5027030;28;20049;-61
2022/12/11 07:22:48;;;;;;;19.63;12.25;;;;;;;-1.80;84.27;100298.00;5027203;28;20053;-62
2022/12/11 07:25:16;;;;;;;20.40;11.65;;;;;;;-1.76;85.42;100300.50;5026939;28;20057;-59
2022/12/11 07:27:43;;;;;;;19.95;12.98;;;;;;;-1.71;86.09;100309.03;5027551;28;20054;-61
2022/12/11 07:30:10;;;;;;;18.50;12.05;;;;;;;-1.72;86.31;100309.91;5026479;28;20485;-61
2022/12/11 07:32:38;;;;;;;21.98;12.32;;;;;;;-1.75;85.40;100315.16;5027667;28;20045;-60
2022/12/11 07:35:05;;;;;;;18.35;11.93;;;;;;;-1.80;84.33;100304.88;5033841;28;20522;-60
2022/12/11 07:37:32;;;;;;;19.40;11.38;;;;;;;-1.83;84.88;100312.66;5030138;28;20053;-61
2022/12/11 07:39:59;;;;;;;25.45;14.95;;;;;;;-1.73;85.88;100321.13;5029497;28;20054;-61
2022/12/11 07:42:27;;;;;;;24.67;13.15;;;;;;;-1.71;84.94;100317.66;5030447;28;20067;-62
2022/12/11 07:44:54;;;;;;;18.60;11.80;;;;;;;-1.75;84.23;100317.72;5029901;28;20053;-62
2022/12/11 07:47:21;;;;;;;18.23;12.32;;;;;;;-1.73;85.36;100313.38;5031088;28;20055;-61
2022/12/11 07:49:49;;;;;;;17.33;11.10;;;;;;;-1.78;84.92;100313.44;5030219;28;20140;-62
2022/12/11 07:52:16;;;;;;;18.80;12.23;;;;;;;-1.69;85.08;100315.91;5030983;28;20072;-62
2022/12/11 07:54:43;;;;;;;18.55;11.90;;;;;;;-1.61;85.53;100315.81;5030969;28;20077;-60
2022/12/11 07:57:10;;;;;;;18.30;11.23;;;;;;;-1.56;85.63;100319.16;5029641;28;20087;-62
2022/12/11 07:59:40;;;;;;;19.70;11.77;;;;;;;-1.64;84.11;100321.00;5029706;28;20496;-62
2022/12/11 08:02:10;;;;;;;17.92;11.93;;;;;;;-1.67;84.41;100313.28;5030489;28;20049;-60
2022/12/11 08:04:38;;;;;;;20.73;12.32;;;;;;;-1.63;85.37;100320.13;5028892;28;20059;-61
2022/12/11 08:07:05;;;;;;;21.92;13.32;;;;;;;-1.59;85.08;100314.88;5030382;28;20096;-60
2022/12/11 08:09:32;;;;;;;17.75;11.30;;;;;;;-1.55;84.92;100320.88;5030327;28;20059;-62
2022/12/11 08:11:59;;;;;;;16.50;10.65;;;;;;;-1.49;83.96;100327.66;5029483;28;20064;-63
2022/12/11 09:56:35;;;;;;;17.63;11.68;;;;;;;-1.36;83.05;100306.81;5026747;28;20048;-61
2022/12/11 09:59:31;;;;;;;20.15;11.55;;;;;;;-1.31;83.74;100297.28;5010174;28;20053;-61
2022/12/11 10:02:17;;;;;;;20.60;11.90;;;;;;;-1.38;83.35;100293.06;5010761;28;20441;-61
2022/12/11 10:04:57;;;;;;;19.20;11.65;;;;;;;-1.29;84.08;100297.25;5022814;28;20490;-59
2022/12/11 10:07:47;;;;;;;18.63;13.02;;;;;;;-1.25;83.71;100288.56;5027318;28;20052;-61
2022/12/11 10:10:36;;;;;;;19.45;11.30;;;;;;;-1.18;83.51;100282.41;5026820;28;20140;-61
2022/12/11 10:13:29;;;;;;;20.23;12.30;;;;;;;-1.26;82.72;100284.28;5010771;28;20387;-62
2022/12/11 10:16:19;;;;;;;17.23;11.80;;;;;;;-1.39;82.34;100283.63;5025044;28;20049;-60
2022/12/11 10:18:47;;;;;;;18.42;11.23;;;;;;;-1.52;82.36;100279.53;5027204;28;20072;-61
2022/12/11 10:21:17;;;;;;;19.35;11.35;;;;;;;-1.45;83.67;100275.13;5023871;28;20055;-59
2022/12/11 10:23:55;;;;;;;17.70;10.85;;;;;;;-1.51;82.58;100277.78;5009922;28;20061;-57
2022/12/11 10:26:22;;;;;;;15.65;10.50;;;;;;;-1.57;82.54;100269.28;5007645;28;20045;-57
2022/12/11 10:28:49;;;;;;;18.80;11.90;;;;;;;-1.60;83.11;100263.31;5025487;28;20068;-60
2022/12/11 10:31:19;;;;;;;18.88;12.90;;;;;;;-1.54;83.53;100258.88;5026927;28;20076;-59
2022/12/11 10:33:55;;;;;;;20.08;12.80;;;;;;;-1.69;82.08;100261.72;5026089;28;20054;-61
2022/12/11 10:36:27;;;;;;;17.90;11.35;;;;;;;-1.65;83.12;100255.63;5029035;28;20057;-60
2022/12/11 10:38:54;;;;;;;16.83;10.55;;;;;;;-1.49;83.92;100261.41;5027466;28;20387;-57
2022/12/11 10:41:27;;;;;;;18.33;11.70;;;;;;;-1.42;83.45;100259.59;5027601;28;20053;-61
2022/12/11 10:43:54;;;;;;;18.15;11.88;;;;;;;-1.42;83.69;100249.25;5005884;28;20047;-60
2022/12/11 10:46:21;;;;;;;18.70;11.35;;;;;;;-1.49;83.14;100251.06;5027421;28;20049;-63
2022/12/11 10:48:52;;;;;;;18.27;11.95;;;;;;;-1.51;83.39;100251.97;5025391;28;20056;-58
2022/12/11 10:51:31;;;;;;;18.13;11.63;;;;;;;-1.50;83.12;100246.78;5027623;28;20093;-61
2022/12/11 10:54:05;;;;;;;17.52;11.00;;;;;;;-1.46;83.34;100253.59;5009922;28;20141;-60
2022/12/11 10:56:34;;;;;;;20.15;12.18;;;;;;;-1.37;84.21;100256.03;5030387;28;20053;-60
2022/12/11 10:59:02;;;;;;;18.73;12.35;;;;;;;-1.30;84.06;100261.97;5028201;28;20054;-59
2022/12/11 11:01:30;;;;;;;19.17;12.45;;;;;;;-1.24;84.47;100248.97;5023938;28;20041;-62
2022/12/11 11:04:18;;;;;;;19.95;11.88;;;;;;;-1.24;84.28;100243.78;5007488;28;20056;-58
2022/12/11 11:06:45;;;;;;;19.08;12.30;;;;;;;-1.20;84.26;100244.59;5023874;28;20143;-61
2022/12/11 11:09:34;;;;;;;17.73;12.07;;;;;;;-1.20;83.83;100234.25;5027656;28;20048;-61
2022/12/11 11:12:02;;;;;;;20.10;12.57;;;;;;;-1.15;83.60;100240.19;5031930;28;20136;-62
2022/12/11 11:14:34;;;;;;;21.77;12.20;;;;;;;-1.19;83.46;100236.81;5031584;28;20049;-62
2022/12/11 11:17:01;;;;;;;17.80;11.30;;;;;;;-1.13;83.89;100239.28;5031881;28;20054;-62
2022/12/11 11:19:35;;;;;;;19.80;11.50;;;;;;;-1.14;83.75;100239.31;5029434;28;20071;-61
2022/12/11 11:22:13;;;;;;;16.08;11.65;;;;;;;-1.22;83.20;100234.28;5033289;28;20061;-62
2022/12/11 12:40:23;;;;;;;17.85;12.18;;;;;;;-1.10;81.55;100187.56;5022398;28;20095;-60
2022/12/11 14:26:38;;;;;;;22.00;13.93;;;;;;;-0.93;84.06;100160.59;5013748;28;20064;-60
2022/12/11 14:46:41;;;;;;;24.05;13.48;;;;;;;-0.95;83.78;100136.50;5012802;28;20052;-60
2022/12/11 14:49:19;;;;;;;20.80;13.63;;;;;;;-1.09;84.35;100147.09;5008101;28;20140;-60
2022/12/11 14:51:47;;;;;;;20.90;13.68;;;;;;;-1.12;84.83;100150.59;5025040;28;20075;-62
2022/12/11 15:57:32;;;;;;;20.40;13.07;;;;;;;-0.82;85.61;100161.22;5027330;28;20037;-61
2022/12/11 16:08:41;;;;;;;20.73;13.38;;;;;;;-0.81;85.75;100168.94;5028600;28;20072;-61
2022/12/11 16:15:28;;;;;;;20.45;14.32;;;;;;;-0.79;85.87;100179.25;5020501;28;20164;-61
2022/12/11 16:35:55;;;;;;;24.42;15.55;;;;;;;-0.99;86.26;100165.84;5028586;28;20888;-62
2022/12/11 16:38:22;;;;;;;19.00;12.10;;;;;;;-1.03;86.81;100165.94;5023162;28;20541;-59
2022/12/11 16:58:06;;;;;;;22.25;13.65;;;;;;;-0.92;87.40;100150.19;5017022;28;20180;-62
2022/12/11 17:31:52;;;;;;;22.88;15.77;;;;;;;-0.94;88.82;100140.78;5014801;28;20300;-63
2022/12/11 20:17:47;;;;;;;26.80;16.17;;;;;;;-1.36;93.64;100148.44;5025746;28;20040;-63
2022/12/11 20:20:14;;;;;;;26.92;16.52;;;;;;;-1.34;93.12;100146.72;5020235;28;20068;-64
2022/12/11 20:39:57;;;;;;;27.05;16.02;;;;;;;-1.35;92.72;100145.84;5027326;28;20044;-63
2022/12/11 21:12:22;;;;;;;28.35;16.60;;;;;;;-1.29;93.02;100150.91;4990400;28;20049;-62
2022/12/11 21:19:22;;;;;;;30.27;18.50;;;;;;;-1.30;92.75;100149.22;5020567;28;20214;-62
2022/12/11 22:22:04;;;;;;;36.50;20.77;;;;;;;-1.59;97.38;100116.16;5019449;28;20195;-63
